Vidfoss — V2QK4 — position and weather

sailwx.info

Track history (hours):
 
Tides and Currents Weather Stations Pressure Air Temp Water Temp Dewpoint Dewpoint Depression Visibility Wind Speed Wind Dir Waves Ship Positions

Vidfoss

Last reported at 2014-Oct-31 02:27 UTC. Time now 2014-Oct-31 15:04 UTC.
Position N 66°27' E 012°59'.

Length 93 m; draft 4.5 m.

Type: Cargo ship. MMSI: 305846000.

Date/timePositionNaut miles runAvg speedWind from/ knotsBaromVisibWave heightAir tempDewpointWater temp
2014-Oct-31 02:27N 66°27' E 012°59'8812.4
2014-Oct-30 19:23N 65°04' E 011°46'1113.0
2014-Oct-30 18:33N 64°57' E 011°28'1212.4
2014-Oct-30 17:33N 64°48' E 011°06'7811.1
2014-Oct-30 10:33N 63°42' E 009°31'285 9.8
2014-Oct-29 05:33N 59°24' E 005°16'10 9.7
2014-Oct-29 04:29N 59°14' E 005°21'1212.6
2014-Oct-29 03:33N 59°03' E 005°20'1211.5
2014-Oct-29 02:33N 58°51' E 005°19'29012.6
2014-Oct-28 03:32N 54°02' E 004°53'1313.1
2014-Oct-28 02:32N 53°49' E 004°52'1313.0
2014-Oct-28 01:32N 53°36' E 004°49'1212.5
2014-Oct-28 00:33N 53°24' E 004°42'1312.7
2014-Oct-27 23:33N 53°13' E 004°35'1312.6
2014-Oct-27 22:30N 52°59' E 004°31'1212.9
2014-Oct-27 21:33N 52°47' E 004°30'1212.2
2014-Oct-27 20:33N 52°35' E 004°29'8 8.2
2014-Oct-27 19:33N 52°28' E 004°36'2 2.4
2014-Oct-27 18:33N 52°28' E 004°40'0 0.0
2014-Oct-27 17:33N 52°28' E 004°40'0 0.0
2014-Oct-27 16:33N 52°28' E 004°40'0 0.0
2014-Oct-27 15:33N 52°28' E 004°40'0 0.0
2014-Oct-27 14:33N 52°28' E 004°40'0 0.0
2014-Oct-27 13:33N 52°28' E 004°40'0 0.0
2014-Oct-27 12:33N 52°28' E 004°40'0 0.0
2014-Oct-27 11:33N 52°28' E 004°40'0 0.0
2014-Oct-27 10:33N 52°28' E 004°40'0 0.0
2014-Oct-27 09:33N 52°28' E 004°40'0 0.0
2014-Oct-27 08:33N 52°28' E 004°40'0 0.0
2014-Oct-27 07:33N 52°28' E 004°40'0 0.0
2014-Oct-27 06:33N 52°28' E 004°40'0 0.0
2014-Oct-27 05:33N 52°28' E 004°40'0 0.0
2014-Oct-27 04:33N 52°28' E 004°40'0 0.0
2014-Oct-27 03:33N 52°28' E 004°40'0 0.0
2014-Oct-27 02:33N 52°28' E 004°40'0 0.0
2014-Oct-27 01:33N 52°28' E 004°40'0 0.0
2014-Oct-27 00:33N 52°28' E 004°40'0 0.0
2014-Oct-26 23:33N 52°28' E 004°40'0 0.0
2014-Oct-26 22:33N 52°28' E 004°40'0 0.0
2014-Oct-26 21:33N 52°28' E 004°40'0 0.0
2014-Oct-26 20:33N 52°28' E 004°40'0 0.0
2014-Oct-26 19:33N 52°28' E 004°40'0 0.0
2014-Oct-26 18:33N 52°28' E 004°40'0 0.0
2014-Oct-26 17:33N 52°28' E 004°40'0 0.0
2014-Oct-26 16:33N 52°28' E 004°40'0 0.1
2014-Oct-26 15:33N 52°28' E 004°40'0 0.0
2014-Oct-26 14:33N 52°28' E 004°40'0 0.0
2014-Oct-26 13:33N 52°28' E 004°40'0 0.0
2014-Oct-26 12:33N 52°28' E 004°40'0 0.0
2014-Oct-26 11:33N 52°28' E 004°40'0 0.0
2014-Oct-26 10:33N 52°28' E 004°40'0 0.0
2014-Oct-26 09:33N 52°28' E 004°40'0 0.0
2014-Oct-26 08:33N 52°28' E 004°40'0 0.0
2014-Oct-26 07:33N 52°28' E 004°40'0 0.0
2014-Oct-26 06:33N 52°28' E 004°40'0 0.0
2014-Oct-26 05:33N 52°28' E 004°40'0 0.0
2014-Oct-26 04:33N 52°28' E 004°40'0 0.0
2014-Oct-26 03:33N 52°28' E 004°40'0 0.0
2014-Oct-26 01:33N 52°28' E 004°40'0 0.0
2014-Oct-26 00:33N 52°28' E 004°40'0 0.0
2014-Oct-25 23:33N 52°28' E 004°40'0 0.0
2014-Oct-25 22:33N 52°28' E 004°40'0 0.0
2014-Oct-25 21:33N 52°28' E 004°40'0 0.0
2014-Oct-25 20:33N 52°28' E 004°40'0 0.0
2014-Oct-25 19:33N 52°28' E 004°40'0 0.0
2014-Oct-25 18:33N 52°28' E 004°40'0 0.0
2014-Oct-25 17:33N 52°28' E 004°40'0 0.0
2014-Oct-25 16:33N 52°28' E 004°40'0 0.0
2014-Oct-25 15:33N 52°28' E 004°40'0 0.0
2014-Oct-25 14:33N 52°28' E 004°40'0 0.0
2014-Oct-25 13:33N 52°28' E 004°40'0 0.0
2014-Oct-25 12:33N 52°28' E 004°40'0 0.0
2014-Oct-25 11:33N 52°28' E 004°40'0 0.0
2014-Oct-25 10:33N 52°28' E 004°40'0 0.2
2014-Oct-25 09:33N 52°28' E 004°40'2 2.3
2014-Oct-25 08:34N 52°28' E 004°36'6 6.3
2014-Oct-25 07:33N 52°33' E 004°29'1212.5
2014-Oct-25 06:33N 52°45' E 004°30'1111.1
2014-Oct-25 05:33N 52°56' E 004°31'33 9.8
2014-Oct-25 02:07N 53°29' E 004°43'712.5
2014-Oct-25 01:33N 53°31' E 004°54'1312.5
2014-Oct-25 00:33N 53°36' E 005°13'1212.2
2014-Oct-24 23:33N 53°40' E 005°33'1211.7
2014-Oct-24 22:33N 53°43' E 005°52'12 9.6
2014-Oct-24 21:22N 53°40' E 006°11'1910.5
2014-Oct-24 19:33N 53°34' E 006°40'9 8.6
2014-Oct-24 18:33N 53°27' E 006°50'1 0.7
2014-Oct-24 17:33N 53°27' E 006°49'0 0.0
2014-Oct-24 16:33N 53°27' E 006°49'0 0.0
2014-Oct-24 15:33N 53°27' E 006°49'0 0.0
2014-Oct-24 14:33N 53°27' E 006°49'0 0.0
2014-Oct-24 13:33N 53°27' E 006°49'0 0.0
2014-Oct-24 12:33N 53°27' E 006°49'0 0.0
2014-Oct-24 11:33N 53°27' E 006°49'0 0.0
2014-Oct-24 10:33N 53°27' E 006°49'0 0.0
2014-Oct-24 09:33N 53°27' E 006°49'0 0.0
2014-Oct-24 08:33N 53°27' E 006°49'0 0.0
2014-Oct-24 07:33N 53°27' E 006°49'0 0.0
2014-Oct-24 06:33N 53°27' E 006°49'0 0.0
2014-Oct-24 05:33N 53°27' E 006°49'0 0.0
2014-Oct-24 04:33N 53°27' E 006°49'0 0.0
2014-Oct-24 03:33N 53°27' E 006°49'0 0.0
2014-Oct-24 02:33N 53°27' E 006°49'0 0.0
2014-Oct-24 01:33N 53°27' E 006°49'0 0.0
2014-Oct-24 00:33N 53°27' E 006°49'0 0.0
2014-Oct-23 23:33N 53°27' E 006°49'0 0.0
2014-Oct-23 22:33N 53°27' E 006°49'0 0.0
2014-Oct-23 21:33N 53°27' E 006°49'2 2.5
2014-Oct-23 20:34N 53°29' E 006°49'1312.2
2014-Oct-23 19:31N 53°37' E 006°32'2310.7
2014-Oct-23 17:25N 53°56' E 006°11'24611.8
2014-Oct-22 20:33N 58°01' E 005°38'4912.2
2014-Oct-22 16:33N 58°49' E 005°27'1212.6
2014-Oct-22 15:33N 59°01' E 005°32'1111.4
2014-Oct-22 14:33N 59°11' E 005°20'  
Track history (hours):
 
Tides and Currents Weather Stations Pressure Air Temp Water Temp Dewpoint Dewpoint Depression Visibility Wind Speed Wind Dir Waves Ship Positions

Vidfoss

Last reported at 2014-Oct-31 02:27 UTC. Time now 2014-Oct-31 15:04 UTC.
Position N 66°27' E 012°59'.

Length 93 m; draft 4.5 m.

Type: Cargo ship. MMSI: 305846000.

Date/timePositionNaut miles runAvg speedWind from/ knotsBaromVisibWave heightAir tempDewpointWater temp
2014-Oct-31 02:27N 66°27' E 012°59'8812.4
2014-Oct-30 19:23N 65°04' E 011°46'1113.0
2014-Oct-30 18:33N 64°57' E 011°28'1212.4
2014-Oct-30 17:33N 64°48' E 011°06'7811.1
2014-Oct-30 10:33N 63°42' E 009°31'285 9.8
2014-Oct-29 05:33N 59°24' E 005°16'10 9.7
2014-Oct-29 04:29N 59°14' E 005°21'1212.6
2014-Oct-29 03:33N 59°03' E 005°20'1211.5
2014-Oct-29 02:33N 58°51' E 005°19'29012.6
2014-Oct-28 03:32N 54°02' E 004°53'1313.1
2014-Oct-28 02:32N 53°49' E 004°52'1313.0
2014-Oct-28 01:32N 53°36' E 004°49'1212.5
2014-Oct-28 00:33N 53°24' E 004°42'1312.7
2014-Oct-27 23:33N 53°13' E 004°35'1312.6
2014-Oct-27 22:30N 52°59' E 004°31'1212.9
2014-Oct-27 21:33N 52°47' E 004°30'1212.2
2014-Oct-27 20:33N 52°35' E 004°29'8 8.2
2014-Oct-27 19:33N 52°28' E 004°36'2 2.4
2014-Oct-27 18:33N 52°28' E 004°40'0 0.0
2014-Oct-27 17:33N 52°28' E 004°40'0 0.0
2014-Oct-27 16:33N 52°28' E 004°40'0 0.0
2014-Oct-27 15:33N 52°28' E 004°40'0 0.0
2014-Oct-27 14:33N 52°28' E 004°40'0 0.0
2014-Oct-27 13:33N 52°28' E 004°40'0 0.0
2014-Oct-27 12:33N 52°28' E 004°40'0 0.0
2014-Oct-27 11:33N 52°28' E 004°40'0 0.0
2014-Oct-27 10:33N 52°28' E 004°40'0 0.0
2014-Oct-27 09:33N 52°28' E 004°40'0 0.0
2014-Oct-27 08:33N 52°28' E 004°40'0 0.0
2014-Oct-27 07:33N 52°28' E 004°40'0 0.0
2014-Oct-27 06:33N 52°28' E 004°40'0 0.0
2014-Oct-27 05:33N 52°28' E 004°40'0 0.0
2014-Oct-27 04:33N 52°28' E 004°40'0 0.0
2014-Oct-27 03:33N 52°28' E 004°40'0 0.0
2014-Oct-27 02:33N 52°28' E 004°40'0 0.0
2014-Oct-27 01:33N 52°28' E 004°40'0 0.0
2014-Oct-27 00:33N 52°28' E 004°40'0 0.0
2014-Oct-26 23:33N 52°28' E 004°40'0 0.0
2014-Oct-26 22:33N 52°28' E 004°40'0 0.0
2014-Oct-26 21:33N 52°28' E 004°40'0 0.0
2014-Oct-26 20:33N 52°28' E 004°40'0 0.0
2014-Oct-26 19:33N 52°28' E 004°40'0 0.0
2014-Oct-26 18:33N 52°28' E 004°40'0 0.0
2014-Oct-26 17:33N 52°28' E 004°40'0 0.0
2014-Oct-26 16:33N 52°28' E 004°40'0 0.1
2014-Oct-26 15:33N 52°28' E 004°40'0 0.0
2014-Oct-26 14:33N 52°28' E 004°40'0 0.0
2014-Oct-26 13:33N 52°28' E 004°40'0 0.0
2014-Oct-26 12:33N 52°28' E 004°40'0 0.0
2014-Oct-26 11:33N 52°28' E 004°40'0 0.0
2014-Oct-26 10:33N 52°28' E 004°40'0 0.0
2014-Oct-26 09:33N 52°28' E 004°40'0 0.0
2014-Oct-26 08:33N 52°28' E 004°40'0 0.0
2014-Oct-26 07:33N 52°28' E 004°40'0 0.0
2014-Oct-26 06:33N 52°28' E 004°40'0 0.0
2014-Oct-26 05:33N 52°28' E 004°40'0 0.0
2014-Oct-26 04:33N 52°28' E 004°40'0 0.0
2014-Oct-26 03:33N 52°28' E 004°40'0 0.0
2014-Oct-26 01:33N 52°28' E 004°40'0 0.0
2014-Oct-26 00:33N 52°28' E 004°40'0 0.0
2014-Oct-25 23:33N 52°28' E 004°40'0 0.0
2014-Oct-25 22:33N 52°28' E 004°40'0 0.0
2014-Oct-25 21:33N 52°28' E 004°40'0 0.0
2014-Oct-25 20:33N 52°28' E 004°40'0 0.0
2014-Oct-25 19:33N 52°28' E 004°40'0 0.0
2014-Oct-25 18:33N 52°28' E 004°40'0 0.0
2014-Oct-25 17:33N 52°28' E 004°40'0 0.0
2014-Oct-25 16:33N 52°28' E 004°40'0 0.0
2014-Oct-25 15:33N 52°28' E 004°40'0 0.0
2014-Oct-25 14:33N 52°28' E 004°40'0 0.0
2014-Oct-25 13:33N 52°28' E 004°40'0 0.0
2014-Oct-25 12:33N 52°28' E 004°40'0 0.0
2014-Oct-25 11:33N 52°28' E 004°40'0 0.0
2014-Oct-25 10:33N 52°28' E 004°40'0 0.2
2014-Oct-25 09:33N 52°28' E 004°40'2 2.3
2014-Oct-25 08:34N 52°28' E 004°36'6 6.3
2014-Oct-25 07:33N 52°33' E 004°29'1212.5
2014-Oct-25 06:33N 52°45' E 004°30'1111.1
2014-Oct-25 05:33N 52°56' E 004°31'33 9.8
2014-Oct-25 02:07N 53°29' E 004°43'712.5
2014-Oct-25 01:33N 53°31' E 004°54'1312.5
2014-Oct-25 00:33N 53°36' E 005°13'1212.2
2014-Oct-24 23:33N 53°40' E 005°33'1211.7
2014-Oct-24 22:33N 53°43' E 005°52'12 9.6
2014-Oct-24 21:22N 53°40' E 006°11'1910.5
2014-Oct-24 19:33N 53°34' E 006°40'9 8.6
2014-Oct-24 18:33N 53°27' E 006°50'1 0.7
2014-Oct-24 17:33N 53°27' E 006°49'0 0.0
2014-Oct-24 16:33N 53°27' E 006°49'0 0.0
2014-Oct-24 15:33N 53°27' E 006°49'0 0.0
2014-Oct-24 14:33N 53°27' E 006°49'0 0.0
2014-Oct-24 13:33N 53°27' E 006°49'0 0.0
2014-Oct-24 12:33N 53°27' E 006°49'0 0.0
2014-Oct-24 11:33N 53°27' E 006°49'0 0.0
2014-Oct-24 10:33N 53°27' E 006°49'0 0.0
2014-Oct-24 09:33N 53°27' E 006°49'0 0.0
2014-Oct-24 08:33N 53°27' E 006°49'0 0.0
2014-Oct-24 07:33N 53°27' E 006°49'0 0.0
2014-Oct-24 06:33N 53°27' E 006°49'0 0.0
2014-Oct-24 05:33N 53°27' E 006°49'0 0.0
2014-Oct-24 04:33N 53°27' E 006°49'0 0.0
2014-Oct-24 03:33N 53°27' E 006°49'0 0.0
2014-Oct-24 02:33N 53°27' E 006°49'0 0.0
2014-Oct-24 01:33N 53°27' E 006°49'0 0.0
2014-Oct-24 00:33N 53°27' E 006°49'0 0.0
2014-Oct-23 23:33N 53°27' E 006°49'0 0.0
2014-Oct-23 22:33N 53°27' E 006°49'0 0.0
2014-Oct-23 21:33N 53°27' E 006°49'2 2.5
2014-Oct-23 20:34N 53°29' E 006°49'1312.2
2014-Oct-23 19:31N 53°37' E 006°32'2310.7
2014-Oct-23 17:25N 53°56' E 006°11'24611.8
2014-Oct-22 20:33N 58°01' E 005°38'4912.2
2014-Oct-22 16:33N 58°49' E 005°27'1212.6
2014-Oct-22 15:33N 59°01' E 005°32'1111.4
2014-Oct-22 14:33N 59°11' E 005°20'  

Dump ship's entire track history